createdAt,value
2022-09-15T00:02:12.830Z,13.50
2022-09-15T00:06:20.206Z,13.60
2022-09-15T00:10:28.755Z,15.10
2022-09-15T00:14:35.493Z,13.70
2022-09-15T00:18:43.385Z,13.80
2022-09-15T00:22:50.104Z,13.90
2022-09-15T00:26:57.042Z,13.90
2022-09-15T00:31:07.579Z,13.90
2022-09-15T00:35:14.385Z,14.00
2022-09-15T00:39:21.061Z,14.10
2022-09-15T00:43:52.852Z,14.10
2022-09-15T00:47:59.652Z,14.10
2022-09-15T00:52:15.730Z,14.20
2022-09-15T00:56:24.286Z,14.30
2022-09-15T01:00:30.976Z,14.30
2022-09-15T01:04:37.671Z,14.30
2022-09-15T01:08:51.467Z,14.40
2022-09-15T01:13:11.675Z,14.40
2022-09-15T01:17:40.345Z,14.50
2022-09-15T01:22:24.582Z,14.50
2022-09-15T01:26:39.992Z,14.60
2022-09-15T01:31:11.549Z,14.60
2022-09-15T01:35:56.100Z,14.60
2022-09-15T01:40:04.665Z,14.60
2022-09-15T01:44:18.514Z,14.50
2022-09-15T01:48:28.047Z,14.50
2022-09-15T01:52:35.456Z,14.40
2022-09-15T01:56:42.294Z,14.40
2022-09-15T02:00:55.941Z,14.30
2022-09-15T02:05:11.354Z,14.20
2022-09-15T02:09:28.467Z,14.20
2022-09-15T02:13:39.666Z,14.20
2022-09-15T02:17:54.139Z,14.20
2022-09-15T02:22:10.592Z,14.20
2022-09-15T02:26:23.138Z,14.20
2022-09-15T02:30:32.341Z,14.20
2022-09-15T02:34:44.266Z,14.10
2022-09-15T02:38:55.322Z,14.00
2022-09-15T02:43:03.590Z,13.80
2022-09-15T02:47:10.942Z,13.70
2022-09-15T02:51:18.565Z,13.60
2022-09-15T02:55:29.030Z,13.60
2022-09-15T02:59:54.496Z,13.70
2022-09-15T03:04:03.380Z,13.80
2022-09-15T03:08:10.347Z,13.90
2022-09-15T03:12:17.727Z,14.00
2022-09-15T03:16:25.375Z,14.00
2022-09-15T03:20:32.052Z,14.10
2022-09-15T03:24:38.854Z,14.10
2022-09-15T03:28:45.571Z,14.10
2022-09-15T03:32:52.247Z,14.20
2022-09-15T03:36:58.905Z,14.10
2022-09-15T03:41:08.339Z,14.10
2022-09-15T03:45:15.067Z,14.20
2022-09-15T03:49:21.914Z,14.20
2022-09-15T03:53:30.927Z,14.20
2022-09-15T03:57:37.691Z,14.10
2022-09-15T04:01:45.572Z,14.00
2022-09-15T04:05:53.006Z,14.00
2022-09-15T04:10:00.979Z,13.90
2022-09-15T04:14:07.768Z,13.90
2022-09-15T04:18:14.431Z,14.00
2022-09-15T04:22:21.601Z,14.10
2022-09-15T04:26:31.405Z,14.20
2022-09-15T04:30:38.107Z,14.20
2022-09-15T04:34:44.818Z,14.30
2022-09-15T04:38:52.111Z,14.30
2022-09-15T04:42:58.866Z,14.20
2022-09-15T04:47:05.663Z,14.20
2022-09-15T04:51:15.855Z,14.20
2022-09-15T04:55:23.159Z,14.30
2022-09-15T04:59:29.888Z,14.30
2022-09-15T05:03:37.686Z,14.40
2022-09-15T05:07:44.332Z,14.40
2022-09-15T05:11:50.994Z,14.30
2022-09-15T05:16:04.418Z,14.30
2022-09-15T05:20:11.088Z,14.30
2022-09-15T05:24:17.806Z,14.40
2022-09-15T05:28:24.878Z,14.40
2022-09-15T05:32:31.549Z,14.40
2022-09-15T05:36:38.242Z,14.30
2022-09-15T05:40:45.211Z,14.20
2022-09-15T05:44:51.862Z,14.20
2022-09-15T05:48:59.013Z,14.30
2022-09-15T05:53:07.389Z,14.40
2022-09-15T05:57:14.285Z,14.40
2022-09-15T06:01:27.119Z,14.40
2022-09-15T06:05:34.082Z,14.50
2022-09-15T06:09:40.779Z,14.60
2022-09-15T06:13:47.839Z,14.60
2022-09-15T06:17:54.493Z,14.60
2022-09-15T06:22:01.251Z,14.70
2022-09-15T06:26:11.362Z,14.80
2022-09-15T06:30:18.514Z,14.90
2022-09-15T06:38:49.877Z,15.00
2022-09-15T06:42:57.163Z,15.00
2022-09-15T06:47:05.101Z,15.10
2022-09-15T06:51:12.830Z,15.10
2022-09-15T06:55:19.620Z,15.10
2022-09-15T06:59:26.313Z,15.20
2022-09-15T07:03:33.087Z,15.30
2022-09-15T07:07:39.901Z,15.30
2022-09-15T07:11:46.686Z,15.30
2022-09-15T07:15:55.827Z,15.50
2022-09-15T07:20:03.351Z,15.60
2022-09-15T07:24:10.629Z,15.80
2022-09-15T07:28:17.805Z,15.80
2022-09-15T07:32:24.969Z,15.60
2022-09-15T07:36:32.153Z,15.40
2022-09-15T07:40:38.914Z,15.20
2022-09-15T07:44:45.662Z,15.00
2022-09-15T07:48:56.308Z,14.70
2022-09-15T07:53:03.551Z,14.60
2022-09-15T07:57:10.222Z,14.70
2022-09-15T08:01:18.378Z,14.70
2022-09-15T08:05:28.150Z,14.90
2022-09-15T08:09:34.866Z,15.10
2022-09-15T08:13:41.577Z,15.20
2022-09-15T08:17:48.218Z,15.50
2022-09-15T08:21:54.965Z,15.40
2022-09-15T08:26:02.143Z,15.40
2022-09-15T08:30:09.218Z,15.50
2022-09-15T08:34:17.501Z,15.80
2022-09-15T08:38:24.141Z,15.90
2022-09-15T08:42:31.401Z,16.10
2022-09-15T08:46:47.760Z,16.90
2022-09-15T08:50:58.050Z,16.30
2022-09-15T08:55:13.053Z,16.70
2022-09-15T08:59:21.190Z,17.10
2022-09-15T09:03:49.262Z,17.50
2022-09-15T09:08:11.847Z,17.70
2022-09-15T09:12:46.509Z,17.60
2022-09-15T09:17:15.026Z,17.50
2022-09-15T09:21:30.746Z,17.20
2022-09-15T09:25:38.359Z,17.30
2022-09-15T09:30:02.554Z,17.40
2022-09-15T09:34:21.879Z,17.70
2022-09-15T09:38:34.387Z,18.00
2022-09-15T09:42:42.917Z,18.90
2022-09-15T09:46:49.608Z,18.10
2022-09-15T09:50:56.472Z,18.40
2022-09-15T09:55:16.179Z,18.20
2022-09-15T09:59:35.512Z,18.00
2022-09-15T10:03:43.772Z,18.00
2022-09-15T10:07:50.572Z,18.00
2022-09-15T10:12:00.191Z,18.70
2022-09-15T10:16:07.034Z,19.00
2022-09-15T10:20:28.484Z,19.40
2022-09-15T10:24:41.572Z,19.70
2022-09-15T10:29:12.622Z,19.10
2022-09-15T10:33:28.487Z,19.00
2022-09-15T10:37:45.624Z,18.60
2022-09-15T10:42:14.121Z,18.60
2022-09-15T10:46:27.328Z,18.40
2022-09-15T10:50:54.976Z,18.20
2022-09-15T10:55:06.246Z,18.40
2022-09-15T10:59:38.094Z,18.40
2022-09-15T11:04:02.995Z,18.50
2022-09-15T11:08:35.530Z,18.70
2022-09-15T11:13:07.246Z,19.20
2022-09-15T11:17:16.751Z,19.10
2022-09-15T11:21:37.128Z,19.60
2022-09-15T11:25:55.082Z,20.10
2022-09-15T11:30:03.374Z,20.30
2022-09-15T11:34:45.580Z,20.30
2022-09-15T11:39:21.634Z,20.20
2022-09-15T11:43:41.074Z,20.00
2022-09-15T11:47:52.602Z,20.10
2022-09-15T11:52:10.800Z,19.70
2022-09-15T11:56:33.571Z,19.40
2022-09-15T12:00:52.722Z,19.40
2022-09-15T12:05:05.384Z,20.50
2022-09-15T12:09:14.246Z,21.10
2022-09-15T12:13:24.142Z,19.70
2022-09-15T12:17:41.669Z,18.60
2022-09-15T12:22:01.280Z,17.90
2022-09-15T12:26:18.357Z,17.50
2022-09-15T12:30:39.829Z,17.50
2022-09-15T12:34:58.644Z,17.50
2022-09-15T12:39:19.690Z,17.60
2022-09-15T12:43:31.629Z,17.40
2022-09-15T12:47:49.072Z,17.40
2022-09-15T12:51:57.647Z,17.60
2022-09-15T12:56:07.771Z,18.90
2022-09-15T13:00:20.423Z,18.50
2022-09-15T13:04:51.333Z,19.70
2022-09-15T13:09:05.582Z,20.20
2022-09-15T13:13:22.587Z,20.10
2022-09-15T13:17:30.150Z,19.30
2022-09-15T13:21:39.964Z,18.70
2022-09-15T13:25:48.200Z,18.80
2022-09-15T13:30:08.101Z,18.60
2022-09-15T13:35:09.803Z,18.40
2022-09-15T13:39:49.820Z,18.30
2022-09-15T13:44:21.398Z,18.10
2022-09-15T13:48:37.056Z,18.10
2022-09-15T13:53:14.320Z,18.40
2022-09-15T13:58:54.601Z,18.70
2022-09-15T14:01:47.861Z,18.60
2022-09-15T14:05:56.270Z,18.30
2022-09-15T14:10:03.717Z,17.90
2022-09-15T14:14:39.207Z,18.20
2022-09-15T14:18:46.846Z,18.40
2022-09-15T14:22:54.161Z,18.20
2022-09-15T14:27:08.878Z,18.50
2022-09-15T14:31:15.955Z,18.50
2022-09-15T14:35:31.750Z,18.20
2022-09-15T14:39:40.330Z,18.00
2022-09-15T14:43:47.016Z,17.90
2022-09-15T14:48:02.068Z,18.40
2022-09-15T14:52:24.427Z,18.70
2022-09-15T14:56:35.186Z,18.50
2022-09-15T15:01:00.395Z,18.60
2022-09-15T15:05:17.909Z,18.20
2022-09-15T15:09:33.595Z,17.90
2022-09-15T15:13:43.564Z,17.70
2022-09-15T15:17:54.541Z,17.60
2022-09-15T15:22:28.286Z,17.50
2022-09-15T15:26:39.135Z,17.60
2022-09-15T15:30:46.982Z,17.50
2022-09-15T15:35:01.280Z,17.50
2022-09-15T15:39:20.946Z,17.50
2022-09-15T15:43:28.868Z,17.10
2022-09-15T15:47:36.941Z,16.90
2022-09-15T15:51:44.780Z,16.80
2022-09-15T15:55:52.104Z,16.80
2022-09-15T16:00:00.544Z,17.00
2022-09-15T16:04:07.555Z,17.30
2022-09-15T16:08:28.702Z,17.40
2022-09-15T16:12:35.631Z,17.50
2022-09-15T16:16:42.678Z,17.40
2022-09-15T16:20:49.682Z,17.40
2022-09-15T16:24:56.423Z,17.20
2022-09-15T16:29:03.148Z,17.00
2022-09-15T16:33:17.272Z,16.90
2022-09-15T16:37:23.953Z,16.70
2022-09-15T16:41:30.679Z,16.60
2022-09-15T16:45:40.701Z,16.70
2022-09-15T16:49:47.860Z,16.50
2022-09-15T16:53:54.563Z,16.50
2022-09-15T16:58:01.706Z,16.40
2022-09-15T17:02:13.533Z,16.40
2022-09-15T17:06:22.162Z,16.30
2022-09-15T17:10:29.047Z,15.60
2022-09-15T17:14:35.856Z,14.90
2022-09-15T17:18:42.541Z,14.30
2022-09-15T17:22:50.774Z,13.80
2022-09-15T17:26:57.422Z,13.50
2022-09-15T17:31:07.122Z,13.10
2022-09-15T17:35:25.356Z,13.10
2022-09-15T17:39:34.050Z,13.10
2022-09-15T17:43:40.768Z,13.20
2022-09-15T17:47:48.234Z,13.20
2022-09-15T17:51:54.865Z,13.20
2022-09-15T17:56:01.810Z,13.20
2022-09-15T18:00:10.829Z,13.00
2022-09-15T18:04:17.466Z,12.80
2022-09-15T18:08:24.644Z,12.90
2022-09-15T18:12:31.297Z,13.00
2022-09-15T18:16:38.005Z,13.10
2022-09-15T18:20:45.227Z,13.10
2022-09-15T18:24:51.985Z,13.00
2022-09-15T18:28:58.643Z,13.00
2022-09-15T18:33:05.486Z,13.00
2022-09-15T18:37:12.120Z,12.90
2022-09-15T18:41:19.031Z,13.00
2022-09-15T18:45:25.993Z,13.00
2022-09-15T18:49:32.697Z,13.00
2022-09-15T18:53:39.393Z,13.00
2022-09-15T18:57:47.187Z,13.00
2022-09-15T19:01:54.021Z,12.90
2022-09-15T19:06:07.357Z,12.90
2022-09-15T19:10:17.480Z,12.90
2022-09-15T19:14:24.183Z,12.90
2022-09-15T19:18:31.405Z,12.90
2022-09-15T19:22:38.403Z,12.90
2022-09-15T19:26:47.178Z,12.90
2022-09-15T19:30:53.881Z,12.90
2022-09-15T19:35:00.652Z,12.90
2022-09-15T19:39:07.371Z,12.90
2022-09-15T19:43:14.037Z,12.90
2022-09-15T19:47:20.742Z,13.00
2022-09-15T19:51:27.809Z,13.00
2022-09-15T19:55:34.479Z,13.00
2022-09-15T19:59:41.129Z,13.00
2022-09-15T20:08:11.996Z,13.10
2022-09-15T20:12:18.952Z,13.20
2022-09-15T20:16:25.596Z,13.20
2022-09-15T20:20:32.884Z,13.10
2022-09-15T20:24:40.458Z,13.10
2022-09-15T20:28:47.631Z,13.10
2022-09-15T20:32:54.276Z,13.10
2022-09-15T20:37:00.928Z,13.00
2022-09-15T20:41:09.725Z,13.10
2022-09-15T20:45:16.488Z,12.90
2022-09-15T20:49:23.210Z,12.80
2022-09-15T20:53:30.385Z,12.70
2022-09-15T20:57:37.130Z,12.70
2022-09-15T21:01:43.817Z,12.60
2022-09-15T21:05:59.686Z,12.70
2022-09-15T21:10:07.473Z,12.60
2022-09-15T21:14:14.358Z,12.60
2022-09-15T21:18:21.064Z,12.60
2022-09-15T21:22:27.719Z,12.60
2022-09-15T21:27:00.258Z,12.60
2022-09-15T21:31:08.424Z,12.70
2022-09-15T21:35:15.185Z,12.70
2022-09-15T21:39:21.869Z,12.70
2022-09-15T21:43:37.102Z,12.70
2022-09-15T21:47:43.741Z,12.70
2022-09-15T21:51:50.512Z,12.70
2022-09-15T21:56:01.295Z,12.60
2022-09-15T22:00:08.839Z,12.60
2022-09-15T22:04:15.589Z,12.50
2022-09-15T22:08:22.288Z,12.60
2022-09-15T22:12:28.957Z,12.70
2022-09-15T22:16:38.094Z,12.80
2022-09-15T22:20:44.991Z,12.80
2022-09-15T22:24:51.630Z,12.80
2022-09-15T22:29:02.302Z,12.80
2022-09-15T22:33:08.968Z,12.80
2022-09-15T22:37:15.639Z,12.80
2022-09-15T22:41:25.727Z,12.90
2022-09-15T22:45:32.478Z,12.80
2022-09-15T22:49:39.186Z,12.80
2022-09-15T22:53:45.922Z,12.80
2022-09-15T22:57:52.586Z,12.80
2022-09-15T23:01:59.421Z,12.80
2022-09-15T23:06:07.714Z,12.80
2022-09-15T23:10:14.861Z,12.80
2022-09-15T23:14:21.564Z,12.80
2022-09-15T23:18:29.149Z,12.80
2022-09-15T23:22:35.803Z,12.80
2022-09-15T23:26:42.529Z,12.70
2022-09-15T23:30:54.419Z,12.70
2022-09-15T23:35:01.110Z,12.70
2022-09-15T23:39:07.780Z,12.70
2022-09-15T23:43:15.069Z,12.70
2022-09-15T23:47:21.772Z,12.70
2022-09-15T23:51:28.506Z,12.70
2022-09-15T23:55:35.711Z,12.80
2022-09-15T23:59:42.354Z,12.80
